createdAt,value
2023-02-01T00:01:26.423Z,80.33
2023-02-01T00:03:53.621Z,80.13
2023-02-01T00:06:20.548Z,79.40
2023-02-01T00:08:47.478Z,79.67
2023-02-01T00:11:14.503Z,79.54
2023-02-01T00:13:43.291Z,80.55
2023-02-01T00:16:17.512Z,80.87
2023-02-01T00:18:49.565Z,79.85
2023-02-01T00:21:18.572Z,79.60
2023-02-01T00:23:45.751Z,80.52
2023-02-01T00:26:19.277Z,79.23
2023-02-01T00:28:46.676Z,79.59
2023-02-01T00:31:13.699Z,79.17
2023-02-01T00:33:40.699Z,79.55
2023-02-01T00:36:09.032Z,79.16
2023-02-01T00:38:38.987Z,79.63
2023-02-01T00:41:09.217Z,79.76
2023-02-01T00:43:36.129Z,80.21
2023-02-01T00:46:03.842Z,81.14
2023-02-01T00:48:31.053Z,80.31
2023-02-01T00:51:05.766Z,80.48
2023-02-01T00:53:33.811Z,81.54
2023-02-01T00:56:00.766Z,78.93
2023-02-01T00:58:28.856Z,77.68
2023-02-01T01:01:17.617Z,77.93
2023-02-01T01:03:47.246Z,78.01
2023-02-01T01:06:18.910Z,79.90
2023-02-01T01:08:45.988Z,78.99
2023-02-01T01:11:17.161Z,77.87
2023-02-01T01:13:44.711Z,80.35
2023-02-01T01:16:12.114Z,80.47
2023-02-01T01:18:40.529Z,78.68
2023-02-01T01:21:09.078Z,79.63
2023-02-01T01:23:37.276Z,78.22
2023-02-01T01:26:16.764Z,78.20
2023-02-01T01:28:43.998Z,80.52
2023-02-01T01:31:13.495Z,80.50
2023-02-01T01:33:40.720Z,79.53
2023-02-01T01:36:12.639Z,78.91
2023-02-01T01:38:40.645Z,80.56
2023-02-01T01:41:09.131Z,79.39
2023-02-01T01:44:28.534Z,79.63
2023-02-01T01:46:55.474Z,79.73
2023-02-01T01:49:26.801Z,80.82
2023-02-01T01:52:00.364Z,82.52
2023-02-01T01:54:29.531Z,79.69
2023-02-01T01:57:06.172Z,80.51
2023-02-01T01:59:37.210Z,80.17
2023-02-01T02:02:05.364Z,79.29
2023-02-01T02:04:35.157Z,75.74
2023-02-01T02:07:16.027Z,74.10
2023-02-01T02:09:54.578Z,77.10
2023-02-01T02:12:25.561Z,76.81
2023-02-01T02:14:53.392Z,77.52
2023-02-01T02:17:51.354Z,75.71
2023-02-01T02:20:49.026Z,78.27
2023-02-01T02:23:53.070Z,78.87
2023-02-01T02:26:47.986Z,81.51
2023-02-01T02:29:27.055Z,77.61
2023-02-01T02:32:23.781Z,75.92
2023-02-01T02:35:18.735Z,77.07
2023-02-01T02:38:10.895Z,74.54
2023-02-01T02:40:48.881Z,73.03
2023-02-01T02:43:55.044Z,73.44
2023-02-01T02:46:56.686Z,73.10
2023-02-01T02:50:05.802Z,72.46
2023-02-01T02:52:54.826Z,74.46
2023-02-01T02:55:22.897Z,75.32
2023-02-01T02:58:09.261Z,76.91
2023-02-01T03:00:56.104Z,78.38
2023-02-01T03:03:41.661Z,78.48
2023-02-01T03:06:17.458Z,76.12
2023-02-01T03:08:46.295Z,73.39
2023-02-01T03:11:16.922Z,73.17
2023-02-01T03:13:57.700Z,75.86
2023-02-01T03:16:41.040Z,75.67
2023-02-01T03:19:24.906Z,75.71
2023-02-01T03:21:56.765Z,73.61
2023-02-01T03:24:41.198Z,71.41
2023-02-01T03:27:17.088Z,76.20
2023-02-01T03:30:12.360Z,74.26
2023-02-01T03:33:02.126Z,75.79
2023-02-01T03:35:59.055Z,77.36
2023-02-01T03:38:40.043Z,72.86
2023-02-01T03:41:25.125Z,76.75
2023-02-01T03:43:52.249Z,76.03
2023-02-01T03:46:34.232Z,74.46
2023-02-01T03:49:06.707Z,76.37
2023-02-01T03:51:37.206Z,75.30
2023-02-01T03:54:06.439Z,73.57
2023-02-01T03:56:37.693Z,74.32
2023-02-01T03:59:04.946Z,73.86
2023-02-01T04:01:35.483Z,74.35
2023-02-01T04:04:02.445Z,75.07
2023-02-01T04:06:29.558Z,76.99
2023-02-01T04:09:01.063Z,75.98
2023-02-01T04:11:28.652Z,74.20
2023-02-01T04:13:55.955Z,75.89
2023-02-01T04:16:22.887Z,77.14
2023-02-01T04:18:49.824Z,75.94
2023-02-01T04:21:17.245Z,74.85
2023-02-01T04:23:44.161Z,74.84
2023-02-01T04:26:11.073Z,75.71
2023-02-01T04:28:37.984Z,77.99
2023-02-01T04:31:05.187Z,77.53
2023-02-01T04:33:32.981Z,79.46
2023-02-01T04:35:59.953Z,78.12
2023-02-01T04:38:26.980Z,74.48
2023-02-01T04:40:53.843Z,72.96
2023-02-01T04:43:20.682Z,73.66
2023-02-01T04:45:49.714Z,73.54
2023-02-01T04:48:17.709Z,74.70
2023-02-01T04:50:48.499Z,75.85
2023-02-01T04:53:16.254Z,76.13
2023-02-01T04:55:44.054Z,77.48
2023-02-01T04:58:11.994Z,77.83
2023-02-01T05:00:39.001Z,78.42
2023-02-01T05:03:06.157Z,81.36
2023-02-01T05:05:33.184Z,81.75
2023-02-01T05:08:00.146Z,85.44
2023-02-01T05:10:27.067Z,84.11
2023-02-01T05:13:12.733Z,83.96
2023-02-01T05:15:39.658Z,83.23
2023-02-01T05:18:06.686Z,85.21
2023-02-01T05:20:33.526Z,88.04
2023-02-01T05:23:00.405Z,91.92
2023-02-01T05:25:27.302Z,92.67
2023-02-01T05:27:54.996Z,92.00
2023-02-01T05:30:22.536Z,90.11
2023-02-01T05:32:53.997Z,87.38
2023-02-01T05:35:21.441Z,86.30
2023-02-01T05:37:48.437Z,85.78
2023-02-01T05:40:15.513Z,83.68
2023-02-01T05:42:42.353Z,85.05
2023-02-01T05:45:09.748Z,87.26
2023-02-01T05:47:36.892Z,87.40
2023-02-01T05:50:05.165Z,85.02
2023-02-01T05:52:32.170Z,81.15
2023-02-01T05:54:59.397Z,78.97
2023-02-01T05:57:26.332Z,75.13
2023-02-01T05:59:53.298Z,72.82
2023-02-01T06:02:20.366Z,73.51
2023-02-01T06:04:47.312Z,70.69
2023-02-01T06:07:14.273Z,69.38
2023-02-01T06:09:41.303Z,70.82
2023-02-01T06:12:08.571Z,71.56
2023-02-01T06:14:35.704Z,65.81
2023-02-01T06:17:02.526Z,60.12
2023-02-01T06:19:29.506Z,59.88
2023-02-01T06:21:56.423Z,61.05
2023-02-01T06:24:23.297Z,62.48
2023-02-01T06:26:50.275Z,64.16
2023-02-01T06:29:17.211Z,70.72
2023-02-01T06:31:44.745Z,74.69
2023-02-01T06:34:11.801Z,72.66
2023-02-01T06:36:39.075Z,72.52
2023-02-01T06:39:06.015Z,69.80
2023-02-01T06:41:35.720Z,67.68
2023-02-01T06:44:02.712Z,60.38
2023-02-01T06:46:29.785Z,52.06
2023-02-01T06:48:57.008Z,48.69
2023-02-01T06:51:26.835Z,47.03
2023-02-01T06:53:54.011Z,50.38
2023-02-01T06:56:24.312Z,52.20
2023-02-01T06:58:51.453Z,52.90
2023-02-01T07:01:18.811Z,52.86
2023-02-01T07:03:50.215Z,55.05
2023-02-01T07:06:17.101Z,57.88
2023-02-01T07:08:44.236Z,60.35
2023-02-01T07:11:13.493Z,63.26
2023-02-01T07:13:40.554Z,58.99
2023-02-01T07:16:13.688Z,57.13
2023-02-01T07:18:40.886Z,50.69
2023-02-01T07:21:08.143Z,47.48
2023-02-01T07:23:35.710Z,45.67
2023-02-01T07:26:05.128Z,44.68
2023-02-01T07:28:34.533Z,47.98
2023-02-01T07:31:14.560Z,49.41
2023-02-01T07:33:41.514Z,47.75
2023-02-01T07:36:12.838Z,45.88
2023-02-01T07:38:40.273Z,44.24
2023-02-01T07:41:07.736Z,44.86
2023-02-01T07:43:38.024Z,48.45
2023-02-01T07:46:06.000Z,51.57
2023-02-01T07:48:37.128Z,53.21
2023-02-01T07:51:07.171Z,55.58
2023-02-01T07:53:35.287Z,55.32
2023-02-01T07:56:03.240Z,53.97
2023-02-01T07:58:31.295Z,52.09
2023-02-01T08:01:16.902Z,50.72
2023-02-01T08:03:43.687Z,47.15
2023-02-01T08:06:10.895Z,49.35
2023-02-01T08:08:38.055Z,50.05
2023-02-01T08:11:07.385Z,50.77
2023-02-01T08:13:35.709Z,52.60
2023-02-01T08:16:05.059Z,52.40
2023-02-01T08:18:32.799Z,48.96
2023-02-01T08:21:12.224Z,49.23
2023-02-01T08:23:40.987Z,49.03
2023-02-01T08:26:26.539Z,48.81
2023-02-01T08:28:56.820Z,47.29
2023-02-01T08:31:25.324Z,50.59
2023-02-01T08:33:54.717Z,49.33
2023-02-01T08:36:23.151Z,52.13
2023-02-01T08:38:50.225Z,51.92
2023-02-01T08:41:20.588Z,52.20
2023-02-01T08:43:49.100Z,44.21
2023-02-01T08:46:17.054Z,39.20
2023-02-01T08:48:44.506Z,38.29
2023-02-01T08:51:13.873Z,36.94
2023-02-01T08:53:42.702Z,37.00
2023-02-01T08:56:11.770Z,35.92
2023-02-01T08:58:38.970Z,36.91
2023-02-01T09:01:10.089Z,37.94
2023-02-01T09:03:37.629Z,42.25
2023-02-01T09:06:06.527Z,41.01
2023-02-01T09:08:36.917Z,42.51
2023-02-01T09:11:11.644Z,43.59
2023-02-01T09:13:38.614Z,43.74
2023-02-01T09:16:05.988Z,45.57
2023-02-01T09:18:33.124Z,45.43
2023-02-01T09:21:00.178Z,45.59
2023-02-01T09:23:27.138Z,43.56
2023-02-01T09:25:54.222Z,40.08
2023-02-01T09:28:21.288Z,37.05
2023-02-01T09:30:48.378Z,37.14
2023-02-01T09:33:15.551Z,35.49
2023-02-01T09:35:42.527Z,38.44
2023-02-01T09:38:09.496Z,39.51
2023-02-01T09:40:36.856Z,40.96
2023-02-01T09:43:17.205Z,41.41
2023-02-01T09:46:19.486Z,38.11
2023-02-01T09:48:47.863Z,35.86
2023-02-01T09:51:22.768Z,36.12
2023-02-01T09:54:00.781Z,34.02
2023-02-01T09:57:02.024Z,34.27
2023-02-01T09:59:52.206Z,36.26
2023-02-01T10:02:24.526Z,37.32
2023-02-01T10:05:00.671Z,38.53
2023-02-01T10:07:45.732Z,40.58
2023-02-01T10:10:17.130Z,47.70
2023-02-01T10:13:14.913Z,50.70
2023-02-01T10:15:50.439Z,50.47
2023-02-01T10:18:43.375Z,44.75
2023-02-01T10:21:10.223Z,48.23
2023-02-01T10:24:17.861Z,45.73
2023-02-01T10:26:57.175Z,41.32
2023-02-01T10:29:29.444Z,41.76
2023-02-01T10:31:56.668Z,46.17
2023-02-01T10:34:31.134Z,45.12
2023-02-01T10:37:02.389Z,40.36
2023-02-01T10:39:29.336Z,44.78
2023-02-01T10:41:57.315Z,48.64
2023-02-01T10:44:31.297Z,48.58
2023-02-01T10:46:58.204Z,45.05
2023-02-01T10:49:39.520Z,47.66
2023-02-01T10:52:20.762Z,48.24
2023-02-01T10:54:47.821Z,49.06
2023-02-01T10:57:27.072Z,49.37
2023-02-01T10:59:54.355Z,47.49
2023-02-01T11:02:29.124Z,48.88
2023-02-01T11:05:13.323Z,49.01
2023-02-01T11:07:49.537Z,48.45
2023-02-01T11:10:36.674Z,47.13
2023-02-01T11:13:05.175Z,42.54
2023-02-01T11:15:32.249Z,42.90
2023-02-01T11:18:16.790Z,42.31
2023-02-01T11:20:45.871Z,41.79
2023-02-01T11:23:34.722Z,44.01
2023-02-01T11:26:10.678Z,47.32
2023-02-01T11:28:41.068Z,49.15
2023-02-01T11:31:14.037Z,46.77
2023-02-01T11:33:51.277Z,46.09
2023-02-01T11:36:27.675Z,46.16
2023-02-01T11:39:11.817Z,46.43
2023-02-01T11:41:58.561Z,44.04
2023-02-01T11:44:32.980Z,40.81
2023-02-01T11:47:21.928Z,40.09
2023-02-01T11:49:50.752Z,43.10
2023-02-01T11:52:43.203Z,46.09
2023-02-01T11:55:45.537Z,48.56
2023-02-01T11:58:36.718Z,49.08
2023-02-01T12:01:24.529Z,51.45
2023-02-01T12:04:30.016Z,52.12
2023-02-01T12:07:10.988Z,51.90
2023-02-01T12:09:43.700Z,53.90
2023-02-01T12:12:23.834Z,54.18
2023-02-01T12:14:56.838Z,52.74
2023-02-01T12:18:11.107Z,51.96
2023-02-01T12:21:04.683Z,51.09
2023-02-01T12:23:46.798Z,48.71
2023-02-01T12:26:40.849Z,46.72
2023-02-01T12:29:22.932Z,47.57
2023-02-01T12:32:31.279Z,44.17
2023-02-01T12:35:16.125Z,38.33
2023-02-01T12:37:57.087Z,36.04
2023-02-01T12:40:38.994Z,38.47
2023-02-01T12:43:16.383Z,37.82
2023-02-01T12:45:49.305Z,36.38
2023-02-01T12:48:28.491Z,36.36
2023-02-01T12:51:00.633Z,37.27
2023-02-01T12:53:51.355Z,41.22
2023-02-01T12:56:56.316Z,42.11
2023-02-01T12:59:35.934Z,41.68
2023-02-01T13:02:13.985Z,40.54
2023-02-01T13:04:59.993Z,39.48
2023-02-01T13:07:33.553Z,41.22
2023-02-01T13:10:13.013Z,41.64
2023-02-01T13:12:54.690Z,40.68
2023-02-01T13:15:30.135Z,42.76
2023-02-01T13:18:02.154Z,39.85
2023-02-01T13:20:38.788Z,38.46
2023-02-01T13:23:20.668Z,37.73
2023-02-01T13:25:53.123Z,37.91
2023-02-01T13:28:29.295Z,36.14
2023-02-01T13:31:21.035Z,39.43
2023-02-01T13:34:25.438Z,41.50
2023-02-01T13:37:17.329Z,40.08
2023-02-01T13:40:07.010Z,42.16
2023-02-01T13:42:51.631Z,41.51
2023-02-01T13:45:31.945Z,42.49
2023-02-01T13:48:03.065Z,41.12
2023-02-01T13:50:42.046Z,41.68
2023-02-01T13:53:11.690Z,44.97
2023-02-01T13:56:26.712Z,42.99
2023-02-01T13:58:53.652Z,43.50
2023-02-01T14:01:23.802Z,44.11
2023-02-01T14:03:56.095Z,43.47
2023-02-01T14:06:29.299Z,46.65
2023-02-01T14:09:37.855Z,47.29
2023-02-01T14:12:44.690Z,50.36
2023-02-01T14:15:19.479Z,51.95
2023-02-01T14:17:46.626Z,53.95
2023-02-01T14:20:41.717Z,54.95
2023-02-01T14:23:17.940Z,55.67
2023-02-01T14:25:46.416Z,56.64
2023-02-01T14:28:24.637Z,57.10
2023-02-01T14:30:51.991Z,56.53
2023-02-01T14:33:24.721Z,56.52
2023-02-01T14:36:13.654Z,56.89
2023-02-01T14:38:49.280Z,57.12
2023-02-01T14:41:31.429Z,56.41
2023-02-01T14:44:04.103Z,56.79
2023-02-01T14:47:08.335Z,57.68
2023-02-01T14:49:49.041Z,58.57
2023-02-01T14:52:21.135Z,58.11
2023-02-01T14:54:56.441Z,58.24
2023-02-01T14:57:29.066Z,57.29
2023-02-01T15:00:07.393Z,56.27
2023-02-01T15:02:37.679Z,55.97
2023-02-01T15:05:25.744Z,54.71
2023-02-01T15:07:54.247Z,54.13
2023-02-01T15:10:22.586Z,54.49
2023-02-01T15:12:50.470Z,55.48
2023-02-01T15:15:21.418Z,55.46
2023-02-01T15:17:54.326Z,58.03
2023-02-01T15:20:27.363Z,59.23
2023-02-01T15:22:57.351Z,59.15
2023-02-01T15:25:30.830Z,58.22
2023-02-01T15:27:58.873Z,58.51
2023-02-01T15:30:30.850Z,57.67
2023-02-01T15:33:14.949Z,56.70
2023-02-01T15:35:50.290Z,56.22
2023-02-01T15:38:28.285Z,56.89
2023-02-01T15:41:11.352Z,57.08
2023-02-01T15:43:56.304Z,59.23
2023-02-01T15:46:44.574Z,59.53
2023-02-01T15:49:30.209Z,60.69
2023-02-01T15:51:59.590Z,61.86
2023-02-01T15:54:41.599Z,62.42
2023-02-01T15:57:08.600Z,63.00
2023-02-01T15:59:45.116Z,62.78
2023-02-01T16:02:40.043Z,61.42
2023-02-01T16:05:28.071Z,62.70
2023-02-01T16:08:04.996Z,64.31
2023-02-01T16:10:39.150Z,65.16
2023-02-01T16:13:06.072Z,64.18
2023-02-01T16:15:33.075Z,63.96
2023-02-01T16:17:59.898Z,64.89
2023-02-01T16:20:26.939Z,65.19
2023-02-01T16:22:53.833Z,65.06
2023-02-01T16:25:20.992Z,65.30
2023-02-01T16:27:48.328Z,67.30
2023-02-01T16:30:15.887Z,68.29
2023-02-01T16:32:42.873Z,67.28
2023-02-01T16:35:36.749Z,66.08
2023-02-01T16:38:14.661Z,68.04
2023-02-01T16:40:43.099Z,68.93
2023-02-01T16:43:18.424Z,69.64
2023-02-01T16:45:50.353Z,68.70
2023-02-01T16:48:24.604Z,67.16
2023-02-01T16:50:56.369Z,65.86
2023-02-01T16:53:25.485Z,64.00
2023-02-01T16:55:53.448Z,63.68
2023-02-01T16:58:21.610Z,62.64
2023-02-01T17:00:49.633Z,63.30
2023-02-01T17:03:17.656Z,64.16
2023-02-01T17:05:50.627Z,63.00
2023-02-01T17:08:23.635Z,63.52
2023-02-01T17:10:50.582Z,63.07
2023-02-01T17:13:17.839Z,63.80
2023-02-01T17:15:55.791Z,64.47
2023-02-01T17:18:23.043Z,64.75
2023-02-01T17:20:52.289Z,64.83
2023-02-01T17:23:20.648Z,65.18
2023-02-01T17:25:48.842Z,65.46
2023-02-01T17:28:15.912Z,66.51
2023-02-01T17:30:42.998Z,66.39
2023-02-01T17:33:35.719Z,67.14
2023-02-01T17:36:05.935Z,67.41
2023-02-01T17:38:34.563Z,67.56
2023-02-01T17:41:01.596Z,66.56
2023-02-01T17:43:28.653Z,66.27
2023-02-01T17:46:01.654Z,66.05
2023-02-01T17:48:29.383Z,66.62
2023-02-01T17:50:58.960Z,66.65
2023-02-01T17:53:27.543Z,67.20
2023-02-01T17:55:56.924Z,67.06
2023-02-01T17:58:24.377Z,66.56
2023-02-01T18:00:51.638Z,66.62
2023-02-01T18:03:36.332Z,66.14
2023-02-01T18:06:04.165Z,67.41
2023-02-01T18:08:34.941Z,67.58
2023-02-01T18:11:02.413Z,67.68
2023-02-01T18:13:31.400Z,67.09
2023-02-01T18:16:00.052Z,67.43
2023-02-01T18:18:29.016Z,67.71
2023-02-01T18:20:56.009Z,67.76
2023-02-01T18:23:24.184Z,68.12
2023-02-01T18:25:52.649Z,68.23
2023-02-01T18:28:20.695Z,69.80
2023-02-01T18:30:50.976Z,70.40
2023-02-01T18:33:19.914Z,70.84
2023-02-01T18:35:47.704Z,71.94
2023-02-01T18:38:15.282Z,72.86
2023-02-01T18:40:53.854Z,74.18
2023-02-01T18:43:21.492Z,74.60
2023-02-01T18:45:48.634Z,73.33
2023-02-01T18:48:17.546Z,73.27
2023-02-01T18:50:46.151Z,73.09
2023-02-01T18:53:14.523Z,74.59
2023-02-01T18:55:41.536Z,74.45
2023-02-01T18:58:08.890Z,74.56
2023-02-01T19:00:36.369Z,73.42
2023-02-01T19:03:03.482Z,72.76
2023-02-01T19:05:31.556Z,72.80
2023-02-01T19:07:58.462Z,72.11
2023-02-01T19:10:27.635Z,71.92
2023-02-01T19:12:57.729Z,73.04
2023-02-01T19:15:26.208Z,73.30
2023-02-01T19:17:55.298Z,73.39
2023-02-01T19:20:25.770Z,73.57
2023-02-01T19:22:54.269Z,72.97
2023-02-01T19:25:26.904Z,72.98
2023-02-01T19:27:54.534Z,73.92
2023-02-01T19:30:23.114Z,73.07
2023-02-01T19:32:51.536Z,71.04
2023-02-01T19:35:20.336Z,71.44
2023-02-01T19:37:50.729Z,71.55
2023-02-01T19:40:19.909Z,69.21
2023-02-01T19:42:47.940Z,67.26
2023-02-01T19:45:16.108Z,67.24
2023-02-01T19:47:43.052Z,68.77
2023-02-01T19:50:16.502Z,70.74
2023-02-01T19:52:43.552Z,70.31
2023-02-01T19:55:10.460Z,70.37
2023-02-01T19:57:37.568Z,70.71
2023-02-01T20:00:06.405Z,72.45
2023-02-01T20:02:32.730Z,73.85
2023-02-01T20:04:59.717Z,73.51
2023-02-01T20:07:26.753Z,76.42
2023-02-01T20:09:53.747Z,77.66
2023-02-01T20:12:20.830Z,78.67
2023-02-01T20:14:47.687Z,78.96
2023-02-01T20:17:15.604Z,78.69
2023-02-01T20:19:42.525Z,80.26
2023-02-01T20:22:09.719Z,81.04
2023-02-01T20:24:38.778Z,81.34
2023-02-01T20:27:07.647Z,81.57
2023-02-01T20:29:34.627Z,81.08
2023-02-01T20:32:01.663Z,80.95
2023-02-01T20:34:28.826Z,79.44
2023-02-01T20:36:55.700Z,78.57
2023-02-01T20:39:22.629Z,79.86
2023-02-01T20:41:49.530Z,78.74
2023-02-01T20:44:16.541Z,77.84
2023-02-01T20:46:43.423Z,78.00
2023-02-01T20:49:10.357Z,77.57
2023-02-01T20:51:37.229Z,79.28
2023-02-01T20:54:04.549Z,79.92
2023-02-01T20:56:31.537Z,80.42
2023-02-01T20:59:03.268Z,80.01
2023-02-01T21:01:31.046Z,80.84
2023-02-01T21:03:58.191Z,79.24
2023-02-01T21:06:25.088Z,79.49
2023-02-01T21:08:51.990Z,79.85
2023-02-01T21:11:18.856Z,79.97
2023-02-01T21:13:52.149Z,77.97
2023-02-01T21:16:21.867Z,75.12
2023-02-01T21:18:52.570Z,75.67
2023-02-01T21:21:19.820Z,74.31
2023-02-01T21:23:47.834Z,73.79
2023-02-01T21:26:17.861Z,73.12
2023-02-01T21:28:45.380Z,73.11
2023-02-01T21:31:14.025Z,73.04
2023-02-01T21:33:41.128Z,73.23
2023-02-01T21:36:08.721Z,73.81
2023-02-01T21:38:35.792Z,72.86
2023-02-01T21:41:22.349Z,72.77
2023-02-01T21:43:49.298Z,73.02
2023-02-01T21:46:18.245Z,73.46
2023-02-01T21:49:05.068Z,74.13
2023-02-01T21:51:32.193Z,74.81
2023-02-01T21:53:59.097Z,74.29
2023-02-01T21:56:26.046Z,74.67
2023-02-01T21:58:53.533Z,74.80
2023-02-01T22:01:20.448Z,75.87
2023-02-01T22:03:47.279Z,76.20
2023-02-01T22:06:30.021Z,76.22
2023-02-01T22:08:57.173Z,76.92
2023-02-01T22:11:24.420Z,78.75
2023-02-01T22:13:51.400Z,80.64
2023-02-01T22:16:21.585Z,83.85
2023-02-01T22:18:50.352Z,83.26
2023-02-01T22:21:18.058Z,83.01
2023-02-01T22:23:45.337Z,80.79
2023-02-01T22:26:14.643Z,80.24
2023-02-01T22:28:41.650Z,78.70
2023-02-01T22:31:09.898Z,77.97
2023-02-01T22:33:37.483Z,77.45
2023-02-01T22:36:05.970Z,77.86
2023-02-01T22:38:34.548Z,76.90
2023-02-01T22:41:04.177Z,76.05
2023-02-01T22:43:32.601Z,77.49
2023-02-01T22:46:05.443Z,77.40
2023-02-01T22:48:36.042Z,78.31
2023-02-01T22:51:04.155Z,79.69
2023-02-01T22:53:31.759Z,78.29
2023-02-01T22:56:03.024Z,76.45
2023-02-01T22:58:30.566Z,76.18
2023-02-01T23:01:08.045Z,76.58
2023-02-01T23:03:36.333Z,77.66
2023-02-01T23:06:04.785Z,77.45
2023-02-01T23:08:31.962Z,78.15
2023-02-01T23:11:00.563Z,76.95
2023-02-01T23:13:27.475Z,75.97
2023-02-01T23:15:54.524Z,77.33
2023-02-01T23:18:21.435Z,78.17
2023-02-01T23:20:48.327Z,77.86
2023-02-01T23:23:15.190Z,78.62
2023-02-01T23:25:42.125Z,77.96
2023-02-01T23:28:09.012Z,77.12
2023-02-01T23:30:35.922Z,76.61
2023-02-01T23:33:02.824Z,76.03
2023-02-01T23:35:29.961Z,75.65
2023-02-01T23:37:56.879Z,75.66
2023-02-01T23:40:23.730Z,75.36
2023-02-01T23:43:10.610Z,75.29
2023-02-01T23:45:37.527Z,76.12
2023-02-01T23:48:04.735Z,76.15
2023-02-01T23:50:31.593Z,75.70
2023-02-01T23:52:58.594Z,75.04
2023-02-01T23:55:25.770Z,74.54
2023-02-01T23:57:52.702Z,74.62
